PWSweather.com
Personal Weather Stations
Station Observations
KMAMEDFI2
Medfield, MA 02052

Medfield, MA 02052

Lat: 42.1900822, Lon: -71.3296889

Elevation: 138

Station Type: Rainwise WS MK-III

http://www.medfieldweather.com

High Low Average
Temperature 58.3°F14.6°C 38.7°F3.7°C 47.9°F8.8°C
Dew Point 56.3°F13.5°C 30.8°F-0.7°C 38.7°F3.7°C
Winds 9.2 mph 14.8 kmh Calm Calm 3.0 mph WSW4.8 kmh WSW
Wind Gusts 23.0 mph37.0 kmh -- 5.0 mph8.0 kmh
Humidity 97% 43% 73%
Pressure 29.96 in1014.6 mb 29.73 in1006.8 mb -
Precipitation 0.09 in2.3 mm - -
Hour Temp Dew Point Humidity Winds Wind Gusts Pressure Precip Precip Rate Daily Precip Total
12:00 AM 65.7°F18.7°C 65.1°F18.4°C 98% 2.3 mph WNW3.7 kmh WNW 8.1 mph13.0 kmh 29.69 in1005.4 mb - 0.00 in0.0 mm 0.00 in0.0 mm
12:10 AM 65.8°F18.8°C 65.2°F18.4°C 98% 3.5 mph SW5.6 kmh SW 12.7 mph20.4 kmh 29.68 in1005.1 mb - 0.00 in0.0 mm 0.00 in0.0 mm
12:20 AM 65.9°F18.8°C 65.0°F18.3°C 97% 3.5 mph SW5.6 kmh SW 5.8 mph9.3 kmh 29.69 in1005.4 mb - 0.00 in0.0 mm 0.00 in0.0 mm
12:30 AM 61.9°F16.6°C 59.6°F15.3°C 92% 4.6 mph S7.4 kmh S 8.1 mph13.0 kmh 29.71 in1006.1 mb - 0.03 in0.8 mm 0.03 in0.8 mm
12:40 AM 58.8°F14.9°C 58.3°F14.6°C 98% 8.1 mph SW13.0 kmh SW 9.2 mph14.8 kmh 29.72 in1006.4 mb - 0.00 in0.0 mm 0.03 in0.8 mm
12:50 AM 57.8°F14.3°C 56.9°F13.8°C 97% 5.8 mph SW9.3 kmh SW 9.2 mph14.8 kmh 29.73 in1006.8 mb - 0.01 in0.3 mm 0.04 in1.0 mm
01:00 AM 57.2°F14.0°C 56.3°F13.5°C 97% 3.5 mph WNW5.6 kmh WNW 6.9 mph11.1 kmh 29.73 in1006.8 mb - 0.00 in0.0 mm 0.04 in1.0 mm
01:10 AM 56.8°F13.8°C 55.9°F13.3°C 97% 3.5 mph SSW5.6 kmh SSW 2.3 mph3.7 kmh 29.75 in1007.5 mb - 0.01 in0.3 mm 0.05 in1.3 mm
01:20 AM 56.1°F13.4°C 55.3°F12.9°C 97% 4.6 mph WSW7.4 kmh WSW 5.8 mph9.3 kmh 29.75 in1007.5 mb - 0.01 in0.3 mm 0.06 in1.5 mm
01:30 AM 55.4°F13.0°C 54.6°F12.6°C 97% 2.3 mph WNW3.7 kmh WNW 2.3 mph3.7 kmh 29.76 in1007.8 mb - 0.01 in0.3 mm 0.07 in1.8 mm
01:40 AM 55.0°F12.8°C 54.1°F12.3°C 97% 2.3 mph SW3.7 kmh SW 2.3 mph3.7 kmh 29.76 in1007.8 mb - 0.01 in0.3 mm 0.08 in2.0 mm
01:50 AM 54.7°F12.6°C 53.8°F12.1°C 97% 5.8 mph WSW9.3 kmh WSW 5.8 mph9.3 kmh 29.76 in1007.8 mb - 0.00 in0.0 mm 0.08 in2.0 mm
02:00 AM 54.0°F12.2°C 53.1°F11.7°C 97% 4.6 mph WSW7.4 kmh WSW 5.8 mph9.3 kmh 29.75 in1007.5 mb - 0.01 in0.3 mm 0.09 in2.3 mm
02:10 AM 53.7°F12.1°C 52.8°F11.6°C 97% 3.5 mph SSW5.6 kmh SSW 2.3 mph3.7 kmh 29.76 in1007.8 mb - 0.00 in0.0 mm 0.09 in2.3 mm
02:20 AM 53.4°F11.9°C 52.6°F11.4°C 97% 3.5 mph SW5.6 kmh SW 9.2 mph14.8 kmh 29.76 in1007.8 mb - 0.00 in0.0 mm 0.09 in2.3 mm
02:30 AM 53.2°F11.8°C 52.4°F11.3°C 97% 3.5 mph W5.6 kmh W 6.9 mph11.1 kmh 29.77 in1008.1 mb - 0.00 in0.0 mm 0.09 in2.3 mm
02:40 AM 52.9°F11.6°C 52.1°F11.2°C 97% 1.2 mph W1.9 kmh W 2.3 mph3.7 kmh 29.77 in1008.1 mb - 0.00 in0.0 mm 0.09 in2.3 mm
02:50 AM 52.6°F11.4°C 51.8°F11.0°C 97% 2.3 mph WSW3.7 kmh WSW 5.8 mph9.3 kmh 29.77 in1008.1 mb - 0.00 in0.0 mm 0.09 in2.3 mm
03:00 AM 52.4°F11.3°C 51.3°F10.7°C 96% 2.3 mph S3.7 kmh S 6.9 mph11.1 kmh 29.78 in1008.5 mb - 0.00 in0.0 mm 0.09 in2.3 mm
03:10 AM 52.2°F11.2°C 49.9°F9.9°C 92% 4.6 mph W7.4 kmh W 2.3 mph3.7 kmh 29.77 in1008.1 mb - 0.00 in0.0 mm 0.09 in2.3 mm
03:20 AM 52.1°F11.2°C 48.7°F9.3°C 88% 3.5 mph W5.6 kmh W 5.8 mph9.3 kmh 29.79 in1008.8 mb - 0.00 in0.0 mm 0.09 in2.3 mm
03:30 AM 52.1°F11.2°C 47.7°F8.7°C 85% 8.1 mph WSW13.0 kmh WSW 16.1 mph25.9 kmh 29.79 in1008.8 mb - 0.00 in0.0 mm 0.09 in2.3 mm
03:40 AM 52.1°F11.2°C 45.8°F7.7°C 79% 4.6 mph SW7.4 kmh SW 8.1 mph13.0 kmh 29.79 in1008.8 mb - 0.00 in0.0 mm 0.09 in2.3 mm
03:50 AM 51.7°F10.9°C 43.3°F6.3°C 73% 6.9 mph WSW11.1 kmh WSW 9.2 mph14.8 kmh 29.80 in1009.1 mb - 0.00 in0.0 mm 0.09 in2.3 mm
04:00 AM 51.3°F10.7°C 40.7°F4.8°C 67% 9.2 mph WSW14.8 kmh WSW 10.4 mph16.7 kmh 29.81 in1009.5 mb - 0.00 in0.0 mm 0.09 in2.3 mm
04:10 AM 50.8°F10.4°C 37.4°F3.0°C 60% 8.1 mph WSW13.0 kmh WSW 23.0 mph37.0 kmh 29.82 in1009.8 mb - 0.00 in0.0 mm 0.09 in2.3 mm
04:20 AM 50.1°F10.1°C 35.4°F1.9°C 57% 4.6 mph WSW7.4 kmh WSW 8.1 mph13.0 kmh 29.83 in1010.2 mb - 0.00 in0.0 mm 0.09 in2.3 mm
04:30 AM 49.3°F9.6°C 34.7°F1.5°C 57% 3.5 mph S5.6 kmh S 15.0 mph24.1 kmh 29.83 in1010.2 mb - 0.00 in0.0 mm 0.09 in2.3 mm
04:40 AM 48.7°F9.3°C 32.8°F0.4°C 54% 4.6 mph WSW7.4 kmh WSW 5.8 mph9.3 kmh 29.85 in1010.8 mb - 0.00 in0.0 mm 0.09 in2.3 mm
04:50 AM 48.0°F8.9°C 32.1°F0.1°C 54% 4.6 mph WNW7.4 kmh WNW 10.4 mph16.7 kmh 29.86 in1011.2 mb - 0.00 in0.0 mm 0.09 in2.3 mm
05:00 AM 47.3°F8.5°C 32.0°F0.0°C 55% 4.6 mph WSW7.4 kmh WSW 5.8 mph9.3 kmh 29.86 in1011.2 mb - 0.00 in0.0 mm 0.09 in2.3 mm
05:10 AM 47.1°F8.4°C 30.8°F-0.7°C 53% 8.1 mph SW13.0 kmh SW 13.8 mph22.2 kmh 29.87 in1011.5 mb - 0.00 in0.0 mm 0.09 in2.3 mm
05:20 AM 46.7°F8.2°C 31.4°F-0.3°C 55% 2.3 mph NW3.7 kmh NW 6.9 mph11.1 kmh 29.87 in1011.5 mb - 0.00 in0.0 mm 0.09 in2.3 mm
05:30 AM 46.4°F8.0°C 31.6°F-0.2°C 56% 4.6 mph SW7.4 kmh SW 12.7 mph20.4 kmh 29.87 in1011.5 mb - 0.00 in0.0 mm 0.09 in2.3 mm
05:40 AM 46.1°F7.8°C 31.7°F-0.2°C 57% 2.3 mph SSW3.7 kmh SSW 2.3 mph3.7 kmh 29.88 in1011.9 mb - 0.00 in0.0 mm 0.09 in2.3 mm
05:50 AM 45.7°F7.6°C 31.3°F-0.4°C 57% 3.5 mph SSW5.6 kmh SSW 6.9 mph11.1 kmh 29.88 in1011.9 mb - 0.00 in0.0 mm 0.09 in2.3 mm
06:00 AM 45.4°F7.4°C 31.1°F-0.5°C 57% 5.8 mph SW9.3 kmh SW 9.2 mph14.8 kmh 29.89 in1012.2 mb - 0.00 in0.0 mm 0.09 in2.3 mm
06:10 AM 45.3°F7.4°C 32.6°F0.3°C 61% 2.3 mph S3.7 kmh S 5.8 mph9.3 kmh 29.89 in1012.2 mb - 0.00 in0.0 mm 0.09 in2.3 mm
06:20 AM 44.9°F7.2°C 31.4°F-0.3°C 59% 4.6 mph WNW7.4 kmh WNW 5.8 mph9.3 kmh 29.90 in1012.5 mb - 0.00 in0.0 mm 0.09 in2.3 mm
06:30 AM 44.5°F6.9°C 31.5°F-0.3°C 60% 6.9 mph SW11.1 kmh SW 9.2 mph14.8 kmh 29.90 in1012.5 mb - 0.00 in0.0 mm 0.09 in2.3 mm
06:40 AM 44.4°F6.9°C 32.6°F0.3°C 63% 5.8 mph SW9.3 kmh SW 6.9 mph11.1 kmh 29.89 in1012.2 mb - 0.00 in0.0 mm 0.09 in2.3 mm
06:50 AM 44.0°F6.7°C 33.0°F0.6°C 65% 2.3 mph WSW3.7 kmh WSW 8.1 mph13.0 kmh 29.89 in1012.2 mb - 0.00 in0.0 mm 0.09 in2.3 mm
07:00 AM 43.6°F6.4°C 33.0°F0.6°C 66% 2.3 mph SW3.7 kmh SW 5.8 mph9.3 kmh 29.90 in1012.5 mb - 0.00 in0.0 mm 0.09 in2.3 mm
07:10 AM 43.4°F6.3°C 32.4°F0.2°C 65% 2.3 mph N3.7 kmh N 2.3 mph3.7 kmh 29.90 in1012.5 mb - 0.00 in0.0 mm 0.09 in2.3 mm
07:20 AM 43.0°F6.1°C 33.9°F1.1°C 70% 2.3 mph WSW3.7 kmh WSW 5.8 mph9.3 kmh 29.91 in1012.9 mb - 0.00 in0.0 mm 0.09 in2.3 mm
07:30 AM 42.9°F6.1°C 33.4°F0.8°C 69% 2.3 mph W3.7 kmh W 2.3 mph3.7 kmh 29.92 in1013.2 mb - 0.00 in0.0 mm 0.09 in2.3 mm
07:40 AM 42.9°F6.1°C 33.8°F1.0°C 70% 1.2 mph WNW1.9 kmh WNW 6.9 mph11.1 kmh 29.92 in1013.2 mb - 0.00 in0.0 mm 0.09 in2.3 mm
07:50 AM 42.8°F6.0°C 33.7°F0.9°C 70% 2.3 mph W3.7 kmh W 5.8 mph9.3 kmh 29.92 in1013.2 mb - 0.00 in0.0 mm 0.09 in2.3 mm
08:00 AM 43.2°F6.2°C 33.7°F0.9°C 69% 3.5 mph SW5.6 kmh SW 8.1 mph13.0 kmh 29.92 in1013.2 mb - 0.00 in0.0 mm 0.09 in2.3 mm
08:10 AM 43.7°F6.5°C 33.8°F1.0°C 68% 2.3 mph SSW3.7 kmh SSW 2.3 mph3.7 kmh 29.94 in1013.9 mb - 0.00 in0.0 mm 0.09 in2.3 mm
08:20 AM 44.1°F6.7°C 34.2°F1.2°C 68% 3.5 mph SW5.6 kmh SW 5.8 mph9.3 kmh 29.94 in1013.9 mb - 0.00 in0.0 mm 0.09 in2.3 mm
08:30 AM 44.3°F6.8°C 34.4°F1.3°C 68% 3.5 mph WSW5.6 kmh WSW 2.3 mph3.7 kmh 29.94 in1013.9 mb - 0.00 in0.0 mm 0.09 in2.3 mm
08:40 AM 44.8°F7.1°C 34.9°F1.6°C 68% 1.2 mph S1.9 kmh S 2.3 mph3.7 kmh 29.94 in1013.9 mb - 0.00 in0.0 mm 0.09 in2.3 mm
08:50 AM 45.2°F7.3°C 35.3°F1.8°C 68% 5.8 mph W9.3 kmh W 6.9 mph11.1 kmh 29.94 in1013.9 mb - 0.00 in0.0 mm 0.09 in2.3 mm
09:00 AM 45.7°F7.6°C 35.0°F1.7°C 66% 3.5 mph NW5.6 kmh NW 4.6 mph7.4 kmh 29.95 in1014.2 mb - 0.00 in0.0 mm 0.09 in2.3 mm
09:10 AM 46.3°F7.9°C 35.2°F1.8°C 65% 6.9 mph SW11.1 kmh SW 10.4 mph16.7 kmh 29.94 in1013.9 mb - 0.00 in0.0 mm 0.09 in2.3 mm
09:20 AM 46.7°F8.2°C 34.8°F1.6°C 63% 8.1 mph SW13.0 kmh SW 12.7 mph20.4 kmh 29.95 in1014.2 mb - 0.00 in0.0 mm 0.09 in2.3 mm
09:30 AM 47.1°F8.4°C 34.7°F1.5°C 62% 5.8 mph SW9.3 kmh SW 9.2 mph14.8 kmh 29.95 in1014.2 mb - 0.00 in0.0 mm 0.09 in2.3 mm
09:40 AM 47.4°F8.6°C 35.4°F1.9°C 63% 6.9 mph W11.1 kmh W 12.7 mph20.4 kmh 29.96 in1014.6 mb - 0.00 in0.0 mm 0.09 in2.3 mm
09:50 AM 47.9°F8.8°C 35.9°F2.2°C 63% 3.5 mph WSW5.6 kmh WSW 4.6 mph7.4 kmh 29.96 in1014.6 mb - 0.00 in0.0 mm 0.09 in2.3 mm
10:00 AM 48.3°F9.1°C 35.5°F1.9°C 61% 5.8 mph SW9.3 kmh SW 9.2 mph14.8 kmh 29.95 in1014.2 mb - 0.00 in0.0 mm 0.09 in2.3 mm
10:10 AM 48.7°F9.3°C 35.0°F1.7°C 59% 8.1 mph WSW13.0 kmh WSW 9.2 mph14.8 kmh 29.94 in1013.9 mb - 0.00 in0.0 mm 0.09 in2.3 mm
10:20 AM 49.1°F9.5°C 34.9°F1.6°C 58% 4.6 mph S7.4 kmh S 5.8 mph9.3 kmh 29.95 in1014.2 mb - 0.00 in0.0 mm 0.09 in2.3 mm
10:30 AM 49.7°F9.8°C 35.9°F2.2°C 59% 5.8 mph W9.3 kmh W 12.7 mph20.4 kmh 29.95 in1014.2 mb - 0.00 in0.0 mm 0.09 in2.3 mm
10:40 AM 49.9°F9.9°C 35.7°F2.1°C 58% 3.5 mph W5.6 kmh W 6.9 mph11.1 kmh 29.96 in1014.6 mb - 0.00 in0.0 mm 0.09 in2.3 mm
10:50 AM 50.5°F10.3°C 35.4°F1.9°C 56% 5.8 mph SW9.3 kmh SW 8.1 mph13.0 kmh 29.96 in1014.6 mb - 0.00 in0.0 mm 0.09 in2.3 mm
11:00 AM 50.9°F10.5°C 36.6°F2.6°C 58% 4.6 mph WNW7.4 kmh WNW 12.7 mph20.4 kmh 29.96 in1014.6 mb - 0.00 in0.0 mm 0.09 in2.3 mm
11:10 AM 51.3°F10.7°C 35.7°F2.1°C 55% 5.8 mph WNW9.3 kmh WNW 15.0 mph24.1 kmh 29.96 in1014.6 mb - 0.00 in0.0 mm 0.09 in2.3 mm
11:20 AM 51.8°F11.0°C 35.6°F2.0°C 54% 8.1 mph SW13.0 kmh SW 16.1 mph25.9 kmh 29.96 in1014.6 mb - 0.00 in0.0 mm 0.09 in2.3 mm
11:30 AM 52.0°F11.1°C 35.3°F1.8°C 53% 3.5 mph WSW5.6 kmh WSW 8.1 mph13.0 kmh 29.96 in1014.6 mb - 0.00 in0.0 mm 0.09 in2.3 mm
11:40 AM 52.9°F11.6°C 36.2°F2.3°C 53% 3.5 mph SW5.6 kmh SW 5.8 mph9.3 kmh 29.96 in1014.6 mb - 0.00 in0.0 mm 0.09 in2.3 mm
11:50 AM 53.2°F11.8°C 35.5°F1.9°C 51% 4.6 mph SW7.4 kmh SW 5.8 mph9.3 kmh 29.96 in1014.6 mb - 0.00 in0.0 mm 0.09 in2.3 mm
12:00 PM 54.8°F12.7°C 36.5°F2.5°C 50% 6.9 mph WSW11.1 kmh WSW 15.0 mph24.1 kmh 29.96 in1014.6 mb - 0.00 in0.0 mm 0.09 in2.3 mm
12:10 PM 54.9°F12.7°C 36.1°F2.3°C 49% 5.8 mph WSW9.3 kmh WSW 9.2 mph14.8 kmh 29.96 in1014.6 mb - 0.00 in0.0 mm 0.09 in2.3 mm
12:20 PM 55.4°F13.0°C 36.0°F2.2°C 48% 6.9 mph WSW11.1 kmh WSW 8.1 mph13.0 kmh 29.96 in1014.6 mb - 0.00 in0.0 mm 0.09 in2.3 mm
12:30 PM 55.8°F13.2°C 37.4°F3.0°C 50% 4.6 mph WSW7.4 kmh WSW 8.1 mph13.0 kmh 29.96 in1014.6 mb - 0.00 in0.0 mm 0.09 in2.3 mm
12:40 PM 55.9°F13.3°C 35.4°F1.9°C 46% 6.9 mph SW11.1 kmh SW 12.7 mph20.4 kmh 29.96 in1014.6 mb - 0.00 in0.0 mm 0.09 in2.3 mm
12:50 PM 56.4°F13.6°C 36.4°F2.4°C 47% 4.6 mph S7.4 kmh S 5.8 mph9.3 kmh 29.96 in1014.6 mb - 0.00 in0.0 mm 0.09 in2.3 mm
01:50 PM 57.8°F14.3°C 36.0°F2.2°C 44% 4.6 mph SW7.4 kmh SW 8.1 mph13.0 kmh 29.94 in1013.9 mb - 0.00 in0.0 mm 0.09 in2.3 mm
02:40 PM 58.1°F14.5°C 35.7°F2.1°C 43% 4.6 mph WSW7.4 kmh WSW 8.1 mph13.0 kmh 29.93 in1013.5 mb - 0.00 in0.0 mm 0.09 in2.3 mm
03:00 PM 58.3°F14.6°C 36.5°F2.5°C 44% 3.5 mph SW5.6 kmh SW 8.1 mph13.0 kmh 29.93 in1013.5 mb - 0.00 in0.0 mm 0.09 in2.3 mm
03:10 PM 58.3°F14.6°C 37.6°F3.1°C 46% 3.5 mph WSW5.6 kmh WSW 6.9 mph11.1 kmh 29.93 in1013.5 mb - 0.00 in0.0 mm 0.09 in2.3 mm
03:20 PM 57.6°F14.2°C 38.5°F3.6°C 49% 3.5 mph W5.6 kmh W 8.1 mph13.0 kmh 29.93 in1013.5 mb - 0.00 in0.0 mm 0.09 in2.3 mm
03:30 PM 56.7°F13.7°C 37.7°F3.2°C 49% 2.3 mph SSE3.7 kmh SSE 2.3 mph3.7 kmh 29.94 in1013.9 mb - 0.00 in0.0 mm 0.09 in2.3 mm
03:40 PM 56.1°F13.4°C 37.7°F3.2°C 50% 5.8 mph SSW9.3 kmh SSW 8.1 mph13.0 kmh 29.93 in1013.5 mb - 0.00 in0.0 mm 0.09 in2.3 mm
03:50 PM 55.9°F13.3°C 37.5°F3.1°C 50% 5.8 mph NW9.3 kmh NW 9.2 mph14.8 kmh 29.93 in1013.5 mb - 0.00 in0.0 mm 0.09 in2.3 mm
04:00 PM 55.9°F13.3°C 37.0°F2.8°C 49% 3.5 mph SW5.6 kmh SW 5.8 mph9.3 kmh 29.93 in1013.5 mb - 0.00 in0.0 mm 0.09 in2.3 mm
04:10 PM 55.6°F13.1°C 36.7°F2.6°C 49% 3.5 mph NW5.6 kmh NW 5.8 mph9.3 kmh 29.92 in1013.2 mb - 0.00 in0.0 mm 0.09 in2.3 mm
04:20 PM 55.4°F13.0°C 37.6°F3.1°C 51% 2.3 mph WSW3.7 kmh WSW 5.8 mph9.3 kmh 29.92 in1013.2 mb - 0.00 in0.0 mm 0.09 in2.3 mm
04:30 PM 55.2°F12.9°C 37.4°F3.0°C 51% 4.6 mph SW7.4 kmh SW 9.2 mph14.8 kmh 29.92 in1013.2 mb - 0.00 in0.0 mm 0.09 in2.3 mm
04:40 PM 55.1°F12.8°C 37.2°F2.9°C 51% 3.5 mph W5.6 kmh W 4.6 mph7.4 kmh 29.92 in1013.2 mb - 0.00 in0.0 mm 0.09 in2.3 mm
04:50 PM 54.8°F12.7°C 37.5°F3.1°C 52% 5.8 mph WSW9.3 kmh WSW 5.8 mph9.3 kmh 29.92 in1013.2 mb - 0.00 in0.0 mm 0.09 in2.3 mm
05:00 PM 54.9°F12.7°C 38.1°F3.4°C 53% 2.3 mph WSW3.7 kmh WSW 4.6 mph7.4 kmh 29.92 in1013.2 mb - 0.00 in0.0 mm 0.09 in2.3 mm
05:10 PM 54.5°F12.5°C 38.2°F3.4°C 54% 3.5 mph SW5.6 kmh SW 5.8 mph9.3 kmh 29.92 in1013.2 mb - 0.00 in0.0 mm 0.09 in2.3 mm
05:20 PM 53.6°F12.0°C 37.8°F3.2°C 55% 2.3 mph SW3.7 kmh SW 2.3 mph3.7 kmh 29.92 in1013.2 mb - 0.00 in0.0 mm 0.09 in2.3 mm
05:30 PM 52.6°F11.4°C 38.2°F3.4°C 58% 3.5 mph SW5.6 kmh SW 2.3 mph3.7 kmh 29.91 in1012.9 mb - 0.00 in0.0 mm 0.09 in2.3 mm
05:40 PM 51.7°F10.9°C 37.8°F3.2°C 59% Calm Calm 1.2 mph1.9 kmh 29.92 in1013.2 mb - 0.00 in0.0 mm 0.09 in2.3 mm
05:50 PM 50.8°F10.4°C 38.6°F3.7°C 63% Calm Calm -- 29.92 in1013.2 mb - 0.00 in0.0 mm 0.09 in2.3 mm
06:00 PM 49.6°F9.8°C 38.3°F3.5°C 65% 1.2 mph SW1.9 kmh SW 1.2 mph1.9 kmh 29.91 in1012.9 mb - 0.00 in0.0 mm 0.09 in2.3 mm
06:10 PM 48.4°F9.1°C 39.0°F3.9°C 70% Calm Calm 1.2 mph1.9 kmh 29.92 in1013.2 mb - 0.00 in0.0 mm 0.09 in2.3 mm
06:20 PM 47.4°F8.6°C 39.5°F4.2°C 74% 1.2 mph SW1.9 kmh SW -- 29.91 in1012.9 mb - 0.00 in0.0 mm 0.09 in2.3 mm
06:30 PM 46.4°F8.0°C 39.9°F4.4°C 78% Calm Calm -- 29.92 in1013.2 mb - 0.00 in0.0 mm 0.09 in2.3 mm
06:40 PM 45.9°F7.7°C 39.7°F4.3°C 79% 1.2 mph WSW1.9 kmh WSW 1.2 mph1.9 kmh 29.92 in1013.2 mb - 0.00 in0.0 mm 0.09 in2.3 mm
06:50 PM 45.5°F7.5°C 39.7°F4.3°C 80% 1.2 mph WSW1.9 kmh WSW 2.3 mph3.7 kmh 29.92 in1013.2 mb - 0.00 in0.0 mm 0.09 in2.3 mm
07:00 PM 44.9°F7.2°C 39.7°F4.3°C 82% Calm Calm -- 29.92 in1013.2 mb - 0.00 in0.0 mm 0.09 in2.3 mm
07:10 PM 44.3°F6.8°C 40.4°F4.7°C 86% Calm Calm -- 29.92 in1013.2 mb - 0.00 in0.0 mm 0.09 in2.3 mm
07:20 PM 43.6°F6.4°C 40.0°F4.4°C 87% Calm Calm -- 29.92 in1013.2 mb - 0.00 in0.0 mm 0.09 in2.3 mm
07:30 PM 42.9°F6.1°C 39.3°F4.1°C 87% Calm Calm -- 29.92 in1013.2 mb - 0.00 in0.0 mm 0.09 in2.3 mm
07:40 PM 42.2°F5.7°C 39.5°F4.2°C 90% Calm Calm -- 29.91 in1012.9 mb - 0.00 in0.0 mm 0.09 in2.3 mm
07:50 PM 41.4°F5.2°C 39.2°F4.0°C 92% Calm Calm -- 29.91 in1012.9 mb - 0.00 in0.0 mm 0.09 in2.3 mm
08:00 PM 40.5°F4.7°C 39.2°F4.0°C 95% Calm Calm -- 29.91 in1012.9 mb - 0.00 in0.0 mm 0.09 in2.3 mm
08:10 PM 40.3°F4.6°C 39.2°F4.0°C 96% Calm Calm -- 29.91 in1012.9 mb - 0.00 in0.0 mm 0.09 in2.3 mm
08:20 PM 40.1°F4.5°C 39.0°F3.9°C 96% Calm Calm -- 29.91 in1012.9 mb - 0.00 in0.0 mm 0.09 in2.3 mm
08:30 PM 40.3°F4.6°C 39.3°F4.1°C 96% Calm Calm -- 29.91 in1012.9 mb - 0.00 in0.0 mm 0.09 in2.3 mm
08:40 PM 39.9°F4.4°C 38.9°F3.8°C 96% Calm Calm -- 29.91 in1012.9 mb - 0.00 in0.0 mm 0.09 in2.3 mm
08:50 PM 39.5°F4.2°C 38.5°F3.6°C 96% Calm Calm -- 29.91 in1012.9 mb - 0.00 in0.0 mm 0.09 in2.3 mm
09:00 PM 39.5°F4.2°C 38.4°F3.6°C 96% Calm Calm -- 29.92 in1013.2 mb - 0.00 in0.0 mm 0.09 in2.3 mm
09:10 PM 39.0°F3.9°C 38.0°F3.3°C 96% Calm Calm -- 29.91 in1012.9 mb - 0.00 in0.0 mm 0.09 in2.3 mm
09:20 PM 39.1°F3.9°C 38.1°F3.4°C 96% Calm Calm -- 29.92 in1013.2 mb - 0.00 in0.0 mm 0.09 in2.3 mm
09:30 PM 39.3°F4.1°C 38.3°F3.5°C 96% Calm Calm -- 29.91 in1012.9 mb - 0.00 in0.0 mm 0.09 in2.3 mm
09:40 PM 39.6°F4.2°C 38.6°F3.7°C 96% Calm Calm -- 29.91 in1012.9 mb - 0.00 in0.0 mm 0.09 in2.3 mm
09:50 PM 39.6°F4.2°C 38.6°F3.7°C 96% 2.3 mph N3.7 kmh N 2.3 mph3.7 kmh 29.91 in1012.9 mb - 0.00 in0.0 mm 0.09 in2.3 mm
10:00 PM 40.4°F4.7°C 39.4°F4.1°C 96% Calm Calm -- 29.91 in1012.9 mb - 0.00 in0.0 mm 0.09 in2.3 mm
10:10 PM 40.6°F4.8°C 39.6°F4.2°C 96% Calm Calm -- 29.91 in1012.9 mb - 0.00 in0.0 mm 0.09 in2.3 mm
10:20 PM 41.1°F5.1°C 40.1°F4.5°C 96% Calm Calm -- 29.91 in1012.9 mb - 0.00 in0.0 mm 0.09 in2.3 mm
10:30 PM 41.6°F5.3°C 40.5°F4.7°C 96% Calm Calm -- 29.91 in1012.9 mb - 0.00 in0.0 mm 0.09 in2.3 mm
10:40 PM 41.6°F5.3°C 40.6°F4.8°C 96% Calm Calm -- 29.91 in1012.9 mb - 0.00 in0.0 mm 0.09 in2.3 mm
10:50 PM 41.4°F5.2°C 40.4°F4.7°C 96% Calm Calm -- 29.91 in1012.9 mb - 0.00 in0.0 mm 0.09 in2.3 mm
11:00 PM 41.6°F5.3°C 40.5°F4.7°C 96% 1.2 mph W1.9 kmh W 2.3 mph3.7 kmh 29.91 in1012.9 mb - 0.00 in0.0 mm 0.09 in2.3 mm
11:10 PM 41.9°F5.5°C 40.8°F4.9°C 96% Calm Calm -- 29.91 in1012.9 mb - 0.00 in0.0 mm 0.09 in2.3 mm
11:20 PM 41.8°F5.4°C 40.8°F4.9°C 96% 1.2 mph WSW1.9 kmh WSW 2.3 mph3.7 kmh 29.91 in1012.9 mb - 0.00 in0.0 mm 0.09 in2.3 mm
11:30 PM 41.5°F5.3°C 40.5°F4.7°C 96% Calm Calm -- 29.91 in1012.9 mb - 0.00 in0.0 mm 0.09 in2.3 mm
11:40 PM 40.8°F4.9°C 39.8°F4.3°C 96% Calm Calm -- 29.90 in1012.5 mb - 0.00 in0.0 mm 0.09 in2.3 mm
11:50 PM 40.3°F4.6°C 39.3°F4.1°C 96% Calm Calm -- 29.90 in1012.5 mb - 0.00 in0.0 mm 0.09 in2.3 mm